メインページ
METAR-TAF:

METAR-TAF

空港 :

ヌアクショット空港

ヌアクショット, モーリタニア

緯度: 18-18-36N, 経度: 015-58-11W, 海抜: 3m

現時点の気象観測

当レポートは33分前の18:00(UTC)に作成
北西の風 18kt
気温 27°C
湿度 74%
気圧 1013 hPa
視程: 6000m
高度1400ftの雲はほとんどない

METAR: GQNO 151800Z 31018KT 6000 FEW014 27/22 Q1013 NOSIG

時間: 18:33 (18:33 UTC)

予報

当レポートは1時間33分前の17:00(UTC)に作成
予報は15日の 18時(UTC)から 16日の 24時(UTC)まで有効
西/北西の風 12kt
視程: 7000m
16日の 04時(UTC)から 16日の 09時(UTC)まで一時的に
高度800ftの千切れ雲あり

TAF: GQNO 151700Z 1518/1624 29012KT 7000 NSC TEMPO 1604/1609 BKN008

4,000以上の空港の気象観測と天気予報(METAR報とTAF報)

利用可能な観測所は地図上に黄色い丸と赤い丸で示す。

丸の上にカーソルを重ねると観測所名を参照できる。

次にクリックすると気象観測と天気予報を参照できる。

マップの切り替え:黒色「×」印の緑ボタンをクリックして拡大、「-」印の緑ボタンをクリックして縮小、緑色の三角印をクリックして隣りの地図に切り替え


METAR-TAF: